sensor_id;sensor_type;location;lat;lon;timestamp;P1;durP1;ratioP1;P2;durP2;ratioP2
11054;SDS011;5580;50.106;8.702;2024-03-17T00:00:43;10.33;;;6.47;;
11054;SDS011;5580;50.106;8.702;2024-03-17T00:03:08;11.97;;;6.67;;
11054;SDS011;5580;50.106;8.702;2024-03-17T00:05:37;10.93;;;6.33;;
11054;SDS011;5580;50.106;8.702;2024-03-17T00:08:03;10.53;;;6.50;;
11054;SDS011;5580;50.106;8.702;2024-03-17T00:10:30;12.53;;;7.03;;
11054;SDS011;5580;50.106;8.702;2024-03-17T00:12:56;15.87;;;8.33;;
11054;SDS011;5580;50.106;8.702;2024-03-17T00:15:22;14.70;;;7.07;;
11054;SDS011;5580;50.106;8.702;2024-03-17T00:17:48;10.87;;;6.90;;
11054;SDS011;5580;50.106;8.702;2024-03-17T00:20:14;13.33;;;7.33;;
11054;SDS011;5580;50.106;8.702;2024-03-17T00:22:48;12.40;;;7.17;;
11054;SDS011;5580;50.106;8.702;2024-03-17T00:25:14;13.47;;;7.27;;
11054;SDS011;5580;50.106;8.702;2024-03-17T00:27:40;14.37;;;7.90;;
11054;SDS011;5580;50.106;8.702;2024-03-17T00:30:08;13.20;;;7.77;;
11054;SDS011;5580;50.106;8.702;2024-03-17T00:32:38;14.93;;;8.30;;
11054;SDS011;5580;50.106;8.702;2024-03-17T00:35:05;11.53;;;6.33;;
11054;SDS011;5580;50.106;8.702;2024-03-17T00:37:35;10.73;;;6.03;;
11054;SDS011;5580;50.106;8.702;2024-03-17T00:40:02;10.77;;;6.53;;
11054;SDS011;5580;50.106;8.702;2024-03-17T00:42:28;12.00;;;6.30;;
11054;SDS011;5580;50.106;8.702;2024-03-17T00:44:55;10.63;;;5.97;;
11054;SDS011;5580;50.106;8.702;2024-03-17T00:47:21;11.23;;;5.93;;
11054;SDS011;5580;50.106;8.702;2024-03-17T00:49:47;9.20;;;5.60;;
11054;SDS011;5580;50.106;8.702;2024-03-17T00:52:15;10.97;;;6.17;;
11054;SDS011;5580;50.106;8.702;2024-03-17T00:54:41;9.93;;;6.27;;
11054;SDS011;5580;50.106;8.702;2024-03-17T00:57:07;9.73;;;6.20;;
11054;SDS011;5580;50.106;8.702;2024-03-17T00:59:32;12.17;;;6.20;;
11054;SDS011;5580;50.106;8.702;2024-03-17T01:01:58;11.67;;;6.17;;
11054;SDS011;5580;50.106;8.702;2024-03-17T01:04:23;10.37;;;5.60;;
11054;SDS011;5580;50.106;8.702;2024-03-17T01:06:49;8.87;;;5.93;;
11054;SDS011;5580;50.106;8.702;2024-03-17T01:09:15;10.43;;;6.07;;
11054;SDS011;5580;50.106;8.702;2024-03-17T01:11:40;10.77;;;5.67;;
11054;SDS011;5580;50.106;8.702;2024-03-17T01:14:06;10.37;;;6.17;;
11054;SDS011;5580;50.106;8.702;2024-03-17T01:16:32;9.00;;;5.90;;
11054;SDS011;5580;50.106;8.702;2024-03-17T01:18:58;12.03;;;6.20;;
11054;SDS011;5580;50.106;8.702;2024-03-17T01:21:24;11.60;;;5.90;;
11054;SDS011;5580;50.106;8.702;2024-03-17T01:23:50;10.10;;;6.30;;
11054;SDS011;5580;50.106;8.702;2024-03-17T01:26:16;9.67;;;5.87;;
11054;SDS011;5580;50.106;8.702;2024-03-17T01:28:41;9.30;;;6.10;;
11054;SDS011;5580;50.106;8.702;2024-03-17T01:31:07;11.03;;;6.17;;
11054;SDS011;5580;50.106;8.702;2024-03-17T01:33:34;11.63;;;6.20;;
11054;SDS011;5580;50.106;8.702;2024-03-17T01:36:00;10.23;;;6.23;;
11054;SDS011;5580;50.106;8.702;2024-03-17T01:38:25;9.50;;;5.97;;
11054;SDS011;5580;50.106;8.702;2024-03-17T01:40:51;9.20;;;6.00;;
11054;SDS011;5580;50.106;8.702;2024-03-17T01:43:16;10.50;;;5.63;;
11054;SDS011;5580;50.106;8.702;2024-03-17T01:45:42;10.07;;;5.90;;
11054;SDS011;5580;50.106;8.702;2024-03-17T01:48:12;9.17;;;5.80;;
11054;SDS011;5580;50.106;8.702;2024-03-17T01:50:41;10.67;;;5.97;;
11054;SDS011;5580;50.106;8.702;2024-03-17T01:53:08;12.00;;;6.00;;
11054;SDS011;5580;50.106;8.702;2024-03-17T01:55:39;9.37;;;6.00;;
11054;SDS011;5580;50.106;8.702;2024-03-17T01:58:07;12.23;;;6.60;;
11054;SDS011;5580;50.106;8.702;2024-03-17T02:00:35;11.97;;;6.43;;
11054;SDS011;5580;50.106;8.702;2024-03-17T02:03:08;12.77;;;6.13;;
11054;SDS011;5580;50.106;8.702;2024-03-17T02:05:37;12.43;;;6.10;;
11054;SDS011;5580;50.106;8.702;2024-03-17T02:08:04;12.50;;;5.90;;
11054;SDS011;5580;50.106;8.702;2024-03-17T02:10:30;11.90;;;6.60;;
11054;SDS011;5580;50.106;8.702;2024-03-17T02:12:56;10.03;;;5.63;;
11054;SDS011;5580;50.106;8.702;2024-03-17T02:15:21;11.13;;;6.13;;
11054;SDS011;5580;50.106;8.702;2024-03-17T02:17:47;8.93;;;5.50;;
11054;SDS011;5580;50.106;8.702;2024-03-17T02:20:13;10.53;;;5.60;;
11054;SDS011;5580;50.106;8.702;2024-03-17T02:22:39;9.33;;;5.63;;
11054;SDS011;5580;50.106;8.702;2024-03-17T02:25:05;10.50;;;6.10;;
11054;SDS011;5580;50.106;8.702;2024-03-17T02:27:34;9.47;;;6.13;;
11054;SDS011;5580;50.106;8.702;2024-03-17T02:30:00;10.67;;;5.90;;
11054;SDS011;5580;50.106;8.702;2024-03-17T02:32:27;11.30;;;6.00;;
11054;SDS011;5580;50.106;8.702;2024-03-17T02:34:53;10.87;;;6.13;;
11054;SDS011;5580;50.106;8.702;2024-03-17T02:37:19;10.60;;;5.83;;
11054;SDS011;5580;50.106;8.702;2024-03-17T02:39:45;10.33;;;5.80;;
11054;SDS011;5580;50.106;8.702;2024-03-17T02:42:11;13.47;;;5.33;;
11054;SDS011;5580;50.106;8.702;2024-03-17T02:44:37;9.87;;;5.70;;
11054;SDS011;5580;50.106;8.702;2024-03-17T02:47:03;9.13;;;5.13;;
11054;SDS011;5580;50.106;8.702;2024-03-17T02:49:30;8.47;;;5.13;;
11054;SDS011;5580;50.106;8.702;2024-03-17T02:52:04;8.83;;;5.37;;
11054;SDS011;5580;50.106;8.702;2024-03-17T02:54:31;8.23;;;5.30;;
11054;SDS011;5580;50.106;8.702;2024-03-17T02:56:57;8.37;;;5.20;;
11054;SDS011;5580;50.106;8.702;2024-03-17T02:59:23;8.97;;;5.10;;
11054;SDS011;5580;50.106;8.702;2024-03-17T03:01:49;10.63;;;5.10;;
11054;SDS011;5580;50.106;8.702;2024-03-17T03:04:15;11.27;;;5.70;;
11054;SDS011;5580;50.106;8.702;2024-03-17T03:06:41;8.63;;;5.60;;
11054;SDS011;5580;50.106;8.702;2024-03-17T03:09:07;12.00;;;6.10;;
11054;SDS011;5580;50.106;8.702;2024-03-17T03:11:38;8.70;;;5.23;;
11054;SDS011;5580;50.106;8.702;2024-03-17T03:14:07;8.57;;;5.43;;
11054;SDS011;5580;50.106;8.702;2024-03-17T03:16:33;13.10;;;5.97;;
11054;SDS011;5580;50.106;8.702;2024-03-17T03:18:59;10.80;;;6.13;;
11054;SDS011;5580;50.106;8.702;2024-03-17T03:21:25;12.33;;;6.03;;
11054;SDS011;5580;50.106;8.702;2024-03-17T03:23:50;11.63;;;6.20;;
11054;SDS011;5580;50.106;8.702;2024-03-17T03:26:16;10.13;;;6.37;;
11054;SDS011;5580;50.106;8.702;2024-03-17T03:28:43;11.63;;;6.40;;
11054;SDS011;5580;50.106;8.702;2024-03-17T03:31:12;13.43;;;6.90;;
11054;SDS011;5580;50.106;8.702;2024-03-17T03:33:38;12.23;;;6.60;;
11054;SDS011;5580;50.106;8.702;2024-03-17T03:36:09;11.50;;;7.20;;
11054;SDS011;5580;50.106;8.702;2024-03-17T03:38:38;12.47;;;6.73;;
11054;SDS011;5580;50.106;8.702;2024-03-17T03:41:10;11.73;;;6.90;;
11054;SDS011;5580;50.106;8.702;2024-03-17T03:43:38;10.70;;;6.60;;
11054;SDS011;5580;50.106;8.702;2024-03-17T03:46:04;12.80;;;6.73;;
11054;SDS011;5580;50.106;8.702;2024-03-17T03:48:30;12.23;;;7.27;;
11054;SDS011;5580;50.106;8.702;2024-03-17T03:50:57;16.07;;;7.73;;
11054;SDS011;5580;50.106;8.702;2024-03-17T03:53:23;13.30;;;7.67;;
11054;SDS011;5580;50.106;8.702;2024-03-17T03:55:49;15.07;;;7.33;;
11054;SDS011;5580;50.106;8.702;2024-03-17T03:58:15;13.20;;;8.20;;
11054;SDS011;5580;50.106;8.702;2024-03-17T04:00:41;14.57;;;8.67;;
11054;SDS011;5580;50.106;8.702;2024-03-17T04:03:06;13.27;;;7.97;;
11054;SDS011;5580;50.106;8.702;2024-03-17T04:05:32;13.57;;;7.33;;
11054;SDS011;5580;50.106;8.702;2024-03-17T04:07:59;12.97;;;7.70;;
11054;SDS011;5580;50.106;8.702;2024-03-17T04:10:25;12.03;;;6.57;;
11054;SDS011;5580;50.106;8.702;2024-03-17T04:12:51;11.27;;;7.03;;
11054;SDS011;5580;50.106;8.702;2024-03-17T04:15:17;13.63;;;8.17;;
11054;SDS011;5580;50.106;8.702;2024-03-17T04:17:43;13.87;;;7.17;;
11054;SDS011;5580;50.106;8.702;2024-03-17T04:20:09;11.57;;;7.53;;
11054;SDS011;5580;50.106;8.702;2024-03-17T04:22:38;16.97;;;7.93;;
11054;SDS011;5580;50.106;8.702;2024-03-17T04:25:04;12.53;;;7.20;;
11054;SDS011;5580;50.106;8.702;2024-03-17T04:27:30;13.67;;;7.70;;
11054;SDS011;5580;50.106;8.702;2024-03-17T04:29:57;12.30;;;7.27;;
11054;SDS011;5580;50.106;8.702;2024-03-17T04:32:23;12.33;;;7.40;;
11054;SDS011;5580;50.106;8.702;2024-03-17T04:34:51;11.13;;;6.70;;
11054;SDS011;5580;50.106;8.702;2024-03-17T04:37:17;12.03;;;7.03;;
11054;SDS011;5580;50.106;8.702;2024-03-17T04:39:44;14.70;;;7.50;;
11054;SDS011;5580;50.106;8.702;2024-03-17T04:42:10;11.63;;;7.07;;
11054;SDS011;5580;50.106;8.702;2024-03-17T04:44:40;14.87;;;7.23;;
11054;SDS011;5580;50.106;8.702;2024-03-17T04:47:07;12.57;;;7.20;;
11054;SDS011;5580;50.106;8.702;2024-03-17T04:49:40;14.43;;;7.33;;
11054;SDS011;5580;50.106;8.702;2024-03-17T04:52:08;11.40;;;7.27;;
11054;SDS011;5580;50.106;8.702;2024-03-17T04:54:34;12.87;;;7.43;;
11054;SDS011;5580;50.106;8.702;2024-03-17T04:57:00;12.83;;;7.70;;
11054;SDS011;5580;50.106;8.702;2024-03-17T04:59:26;13.37;;;7.47;;
11054;SDS011;5580;50.106;8.702;2024-03-17T05:01:52;11.20;;;7.30;;
11054;SDS011;5580;50.106;8.702;2024-03-17T05:04:18;13.07;;;7.37;;
11054;SDS011;5580;50.106;8.702;2024-03-17T05:06:44;13.37;;;7.43;;
11054;SDS011;5580;50.106;8.702;2024-03-17T05:09:14;13.20;;;7.63;;
11054;SDS011;5580;50.106;8.702;2024-03-17T05:11:43;14.50;;;7.93;;
11054;SDS011;5580;50.106;8.702;2024-03-17T05:14:09;13.20;;;8.03;;
11054;SDS011;5580;50.106;8.702;2024-03-17T05:16:35;12.97;;;7.90;;
11054;SDS011;5580;50.106;8.702;2024-03-17T05:19:01;13.90;;;7.87;;
11054;SDS011;5580;50.106;8.702;2024-03-17T05:21:28;14.23;;;7.90;;
11054;SDS011;5580;50.106;8.702;2024-03-17T05:23:55;12.13;;;7.53;;
11054;SDS011;5580;50.106;8.702;2024-03-17T05:26:25;12.63;;;7.37;;
11054;SDS011;5580;50.106;8.702;2024-03-17T05:28:50;13.53;;;8.23;;
11054;SDS011;5580;50.106;8.702;2024-03-17T05:31:16;12.93;;;7.90;;
11054;SDS011;5580;50.106;8.702;2024-03-17T05:33:43;16.87;;;8.47;;
11054;SDS011;5580;50.106;8.702;2024-03-17T05:36:09;14.60;;;8.47;;
11054;SDS011;5580;50.106;8.702;2024-03-17T05:38:35;13.30;;;8.13;;
11054;SDS011;5580;50.106;8.702;2024-03-17T05:41:01;17.40;;;8.67;;
11054;SDS011;5580;50.106;8.702;2024-03-17T05:43:30;13.47;;;8.97;;
11054;SDS011;5580;50.106;8.702;2024-03-17T05:45:58;13.03;;;8.37;;
11054;SDS011;5580;50.106;8.702;2024-03-17T05:48:25;15.83;;;8.47;;
11054;SDS011;5580;50.106;8.702;2024-03-17T05:50:52;13.50;;;8.53;;
11054;SDS011;5580;50.106;8.702;2024-03-17T05:53:17;12.27;;;7.90;;
11054;SDS011;5580;50.106;8.702;2024-03-17T05:55:44;15.07;;;8.60;;
11054;SDS011;5580;50.106;8.702;2024-03-17T05:58:10;15.40;;;8.43;;
11054;SDS011;5580;50.106;8.702;2024-03-17T06:00:36;15.60;;;8.30;;
11054;SDS011;5580;50.106;8.702;2024-03-17T06:03:03;15.73;;;8.53;;
11054;SDS011;5580;50.106;8.702;2024-03-17T06:05:34;13.43;;;7.90;;
11054;SDS011;5580;50.106;8.702;2024-03-17T06:08:01;13.70;;;8.30;;
11054;SDS011;5580;50.106;8.702;2024-03-17T06:10:28;16.47;;;8.90;;
11054;SDS011;5580;50.106;8.702;2024-03-17T06:12:55;15.23;;;8.13;;
11054;SDS011;5580;50.106;8.702;2024-03-17T06:15:21;15.00;;;8.90;;
11054;SDS011;5580;50.106;8.702;2024-03-17T06:17:48;13.07;;;8.60;;
11054;SDS011;5580;50.106;8.702;2024-03-17T06:20:15;13.73;;;8.10;;
11054;SDS011;5580;50.106;8.702;2024-03-17T06:22:41;15.37;;;8.73;;
11054;SDS011;5580;50.106;8.702;2024-03-17T06:25:06;13.43;;;8.13;;
11054;SDS011;5580;50.106;8.702;2024-03-17T06:27:32;13.27;;;8.10;;
11054;SDS011;5580;50.106;8.702;2024-03-17T06:30:01;14.43;;;7.80;;
11054;SDS011;5580;50.106;8.702;2024-03-17T06:32:30;16.13;;;8.53;;
11054;SDS011;5580;50.106;8.702;2024-03-17T06:34:56;13.33;;;7.90;;
11054;SDS011;5580;50.106;8.702;2024-03-17T06:37:23;13.30;;;7.57;;
11054;SDS011;5580;50.106;8.702;2024-03-17T06:39:49;13.03;;;7.67;;
11054;SDS011;5580;50.106;8.702;2024-03-17T06:42:15;13.13;;;7.60;;
11054;SDS011;5580;50.106;8.702;2024-03-17T06:44:40;12.00;;;7.07;;
11054;SDS011;5580;50.106;8.702;2024-03-17T06:47:06;13.40;;;7.90;;
11054;SDS011;5580;50.106;8.702;2024-03-17T06:49:32;15.33;;;7.90;;
11054;SDS011;5580;50.106;8.702;2024-03-17T06:51:57;13.60;;;7.70;;
11054;SDS011;5580;50.106;8.702;2024-03-17T06:54:23;12.67;;;7.20;;
11054;SDS011;5580;50.106;8.702;2024-03-17T06:56:49;15.13;;;8.00;;
11054;SDS011;5580;50.106;8.702;2024-03-17T06:59:15;11.90;;;7.63;;
11054;SDS011;5580;50.106;8.702;2024-03-17T07:01:41;12.37;;;7.23;;
11054;SDS011;5580;50.106;8.702;2024-03-17T07:04:06;13.57;;;7.27;;
11054;SDS011;5580;50.106;8.702;2024-03-17T07:06:32;13.20;;;7.30;;
11054;SDS011;5580;50.106;8.702;2024-03-17T07:08:57;12.03;;;7.40;;
11054;SDS011;5580;50.106;8.702;2024-03-17T07:11:23;12.63;;;7.47;;
11054;SDS011;5580;50.106;8.702;2024-03-17T07:13:49;13.47;;;7.67;;
11054;SDS011;5580;50.106;8.702;2024-03-17T07:16:18;13.27;;;7.70;;
11054;SDS011;5580;50.106;8.702;2024-03-17T07:18:46;11.47;;;7.57;;
11054;SDS011;5580;50.106;8.702;2024-03-17T07:21:12;12.10;;;7.70;;
11054;SDS011;5580;50.106;8.702;2024-03-17T07:23:38;11.90;;;7.57;;
11054;SDS011;5580;50.106;8.702;2024-03-17T07:26:03;16.37;;;7.80;;
11054;SDS011;5580;50.106;8.702;2024-03-17T07:28:29;13.07;;;7.37;;
11054;SDS011;5580;50.106;8.702;2024-03-17T07:30:56;12.43;;;7.90;;
11054;SDS011;5580;50.106;8.702;2024-03-17T07:33:23;12.23;;;7.60;;
11054;SDS011;5580;50.106;8.702;2024-03-17T07:35:50;13.13;;;7.27;;
11054;SDS011;5580;50.106;8.702;2024-03-17T07:38:17;10.97;;;7.17;;
11054;SDS011;5580;50.106;8.702;2024-03-17T07:40:44;12.97;;;7.37;;
11054;SDS011;5580;50.106;8.702;2024-03-17T07:43:10;11.93;;;7.10;;
11054;SDS011;5580;50.106;8.702;2024-03-17T07:45:35;11.87;;;7.20;;
11054;SDS011;5580;50.106;8.702;2024-03-17T07:48:01;12.27;;;7.10;;
11054;SDS011;5580;50.106;8.702;2024-03-17T07:50:27;14.37;;;7.20;;
11054;SDS011;5580;50.106;8.702;2024-03-17T07:52:52;13.03;;;7.00;;
11054;SDS011;5580;50.106;8.702;2024-03-17T07:55:18;11.13;;;6.87;;
11054;SDS011;5580;50.106;8.702;2024-03-17T07:57:43;11.50;;;6.87;;
11054;SDS011;5580;50.106;8.702;2024-03-17T08:00:10;11.00;;;6.73;;
11054;SDS011;5580;50.106;8.702;2024-03-17T08:02:49;12.50;;;6.70;;
11054;SDS011;5580;50.106;8.702;2024-03-17T08:05:15;12.07;;;6.20;;
11054;SDS011;5580;50.106;8.702;2024-03-17T08:07:41;11.87;;;7.20;;
11054;SDS011;5580;50.106;8.702;2024-03-17T08:10:10;10.50;;;6.63;;
11054;SDS011;5580;50.106;8.702;2024-03-17T08:12:35;10.90;;;6.93;;
11054;SDS011;5580;50.106;8.702;2024-03-17T08:15:01;10.77;;;6.50;;
11054;SDS011;5580;50.106;8.702;2024-03-17T08:17:26;11.27;;;6.80;;
11054;SDS011;5580;50.106;8.702;2024-03-17T08:19:52;11.53;;;6.07;;
11054;SDS011;5580;50.106;8.702;2024-03-17T08:22:18;10.37;;;6.00;;
11054;SDS011;5580;50.106;8.702;2024-03-17T08:24:44;11.47;;;6.20;;
11054;SDS011;5580;50.106;8.702;2024-03-17T08:27:09;11.27;;;6.50;;
11054;SDS011;5580;50.106;8.702;2024-03-17T08:29:35;14.20;;;6.50;;
11054;SDS011;5580;50.106;8.702;2024-03-17T08:32:00;11.13;;;6.33;;
11054;SDS011;5580;50.106;8.702;2024-03-17T08:34:26;11.63;;;6.33;;
11054;SDS011;5580;50.106;8.702;2024-03-17T08:36:52;9.60;;;6.00;;
11054;SDS011;5580;50.106;8.702;2024-03-17T08:39:17;11.00;;;6.20;;
11054;SDS011;5580;50.106;8.702;2024-03-17T08:41:44;10.03;;;6.00;;
11054;SDS011;5580;50.106;8.702;2024-03-17T08:44:10;10.23;;;6.30;;
11054;SDS011;5580;50.106;8.702;2024-03-17T08:46:36;9.97;;;6.07;;
11054;SDS011;5580;50.106;8.702;2024-03-17T08:49:01;10.67;;;6.10;;
11054;SDS011;5580;50.106;8.702;2024-03-17T08:51:27;11.67;;;6.50;;
11054;SDS011;5580;50.106;8.702;2024-03-17T08:53:53;11.03;;;6.00;;
11054;SDS011;5580;50.106;8.702;2024-03-17T08:56:19;10.60;;;6.10;;
11054;SDS011;5580;50.106;8.702;2024-03-17T08:58:45;10.47;;;5.90;;
11054;SDS011;5580;50.106;8.702;2024-03-17T09:01:11;11.20;;;6.30;;
11054;SDS011;5580;50.106;8.702;2024-03-17T09:03:39;11.93;;;5.83;;
11054;SDS011;5580;50.106;8.702;2024-03-17T09:06:11;12.80;;;6.20;;
11054;SDS011;5580;50.106;8.702;2024-03-17T09:08:40;11.83;;;6.20;;
11054;SDS011;5580;50.106;8.702;2024-03-17T09:11:06;10.43;;;5.60;;
11054;SDS011;5580;50.106;8.702;2024-03-17T09:13:37;9.33;;;5.70;;
11054;SDS011;5580;50.106;8.702;2024-03-17T09:16:03;9.07;;;5.70;;
11054;SDS011;5580;50.106;8.702;2024-03-17T09:18:32;12.13;;;6.57;;
11054;SDS011;5580;50.106;8.702;2024-03-17T09:21:05;10.57;;;5.80;;
11054;SDS011;5580;50.106;8.702;2024-03-17T09:23:32;9.33;;;5.83;;
11054;SDS011;5580;50.106;8.702;2024-03-17T09:26:05;9.30;;;5.43;;
11054;SDS011;5580;50.106;8.702;2024-03-17T09:28:37;9.07;;;5.67;;
11054;SDS011;5580;50.106;8.702;2024-03-17T09:31:03;8.80;;;5.57;;
11054;SDS011;5580;50.106;8.702;2024-03-17T09:33:32;10.90;;;5.73;;
11054;SDS011;5580;50.106;8.702;2024-03-17T09:35:59;8.50;;;5.70;;
11054;SDS011;5580;50.106;8.702;2024-03-17T09:38:31;9.83;;;5.50;;
11054;SDS011;5580;50.106;8.702;2024-03-17T09:40:57;9.73;;;6.13;;
11054;SDS011;5580;50.106;8.702;2024-03-17T09:43:25;10.40;;;5.80;;
11054;SDS011;5580;50.106;8.702;2024-03-17T09:45:51;8.07;;;5.80;;
11054;SDS011;5580;50.106;8.702;2024-03-17T09:48:23;8.93;;;5.60;;
11054;SDS011;5580;50.106;8.702;2024-03-17T09:50:56;11.67;;;5.93;;
11054;SDS011;5580;50.106;8.702;2024-03-17T09:55:51;10.57;;;5.27;;
11054;SDS011;5580;50.106;8.702;2024-03-17T09:58:18;7.73;;;4.73;;
11054;SDS011;5580;50.106;8.702;2024-03-17T10:00:44;7.57;;;5.17;;
11054;SDS011;5580;50.106;8.702;2024-03-17T10:03:11;9.00;;;5.00;;
11054;SDS011;5580;50.106;8.702;2024-03-17T10:05:37;7.50;;;5.17;;
11054;SDS011;5580;50.106;8.702;2024-03-17T10:08:03;9.90;;;4.77;;
11054;SDS011;5580;50.106;8.702;2024-03-17T10:10:29;7.13;;;4.80;;
11054;SDS011;5580;50.106;8.702;2024-03-17T10:12:54;10.80;;;4.90;;
11054;SDS011;5580;50.106;8.702;2024-03-17T10:15:20;8.00;;;4.83;;
11054;SDS011;5580;50.106;8.702;2024-03-17T10:17:46;7.73;;;4.70;;
11054;SDS011;5580;50.106;8.702;2024-03-17T10:20:21;6.77;;;4.90;;
11054;SDS011;5580;50.106;8.702;2024-03-17T10:22:57;8.73;;;5.30;;
11054;SDS011;5580;50.106;8.702;2024-03-17T10:25:31;7.47;;;4.70;;
11054;SDS011;5580;50.106;8.702;2024-03-17T10:27:57;7.77;;;5.30;;
11054;SDS011;5580;50.106;8.702;2024-03-17T10:30:24;6.97;;;4.77;;
11054;SDS011;5580;50.106;8.702;2024-03-17T10:32:56;6.40;;;4.60;;
11054;SDS011;5580;50.106;8.702;2024-03-17T10:35:29;7.07;;;4.73;;
11054;SDS011;5580;50.106;8.702;2024-03-17T10:37:56;6.77;;;4.77;;
11054;SDS011;5580;50.106;8.702;2024-03-17T10:40:23;7.43;;;4.73;;
11054;SDS011;5580;50.106;8.702;2024-03-17T10:42:50;7.10;;;4.80;;
11054;SDS011;5580;50.106;8.702;2024-03-17T10:45:16;7.70;;;5.00;;
11054;SDS011;5580;50.106;8.702;2024-03-17T10:47:43;7.77;;;5.30;;
11054;SDS011;5580;50.106;8.702;2024-03-17T10:50:24;8.30;;;4.97;;
11054;SDS011;5580;50.106;8.702;2024-03-17T10:52:50;6.20;;;4.70;;
11054;SDS011;5580;50.106;8.702;2024-03-17T10:55:20;5.33;;;4.50;;
11054;SDS011;5580;50.106;8.702;2024-03-17T10:57:47;8.10;;;4.70;;
11054;SDS011;5580;50.106;8.702;2024-03-17T11:00:15;7.60;;;4.70;;
11054;SDS011;5580;50.106;8.702;2024-03-17T11:02:47;9.03;;;4.60;;
11054;SDS011;5580;50.106;8.702;2024-03-17T11:05:24;8.37;;;4.80;;
11054;SDS011;5580;50.106;8.702;2024-03-17T11:07:59;5.37;;;4.20;;
11054;SDS011;5580;50.106;8.702;2024-03-17T11:10:34;6.53;;;4.40;;
11054;SDS011;5580;50.106;8.702;2024-03-17T11:13:01;8.03;;;4.50;;
11054;SDS011;5580;50.106;8.702;2024-03-17T11:20:40;6.83;;;4.50;;
11054;SDS011;5580;50.106;8.702;2024-03-17T11:23:06;7.07;;;4.17;;
11054;SDS011;5580;50.106;8.702;2024-03-17T11:28:02;5.93;;;4.70;;
11054;SDS011;5580;50.106;8.702;2024-03-17T11:30:45;7.70;;;4.80;;
11054;SDS011;5580;50.106;8.702;2024-03-17T11:38:57;9.40;;;4.90;;
11054;SDS011;5580;50.106;8.702;2024-03-17T11:46:51;8.90;;;4.60;;
11054;SDS011;5580;50.106;8.702;2024-03-17T11:54:46;6.67;;;4.63;;
11054;SDS011;5580;50.106;8.702;2024-03-17T11:57:20;8.67;;;4.90;;
11054;SDS011;5580;50.106;8.702;2024-03-17T11:59:50;7.20;;;4.50;;
11054;SDS011;5580;50.106;8.702;2024-03-17T12:02:17;6.80;;;4.43;;
11054;SDS011;5580;50.106;8.702;2024-03-17T12:04:46;9.00;;;4.70;;
11054;SDS011;5580;50.106;8.702;2024-03-17T12:07:14;7.63;;;4.40;;
11054;SDS011;5580;50.106;8.702;2024-03-17T12:09:43;7.53;;;4.80;;
11054;SDS011;5580;50.106;8.702;2024-03-17T12:14:46;8.73;;;4.53;;
11054;SDS011;5580;50.106;8.702;2024-03-17T12:17:13;9.87;;;5.10;;
11054;SDS011;5580;50.106;8.702;2024-03-17T12:19:40;9.00;;;5.20;;
11054;SDS011;5580;50.106;8.702;2024-03-17T12:22:09;7.83;;;5.03;;
11054;SDS011;5580;50.106;8.702;2024-03-17T12:24:46;10.27;;;5.60;;
11054;SDS011;5580;50.106;8.702;2024-03-17T12:27:22;8.90;;;5.40;;
11054;SDS011;5580;50.106;8.702;2024-03-17T12:29:50;8.43;;;5.23;;
11054;SDS011;5580;50.106;8.702;2024-03-17T12:32:17;9.23;;;5.20;;
11054;SDS011;5580;50.106;8.702;2024-03-17T12:34:49;9.27;;;5.33;;
11054;SDS011;5580;50.106;8.702;2024-03-17T12:40:02;8.03;;;5.50;;
11054;SDS011;5580;50.106;8.702;2024-03-17T12:42:28;7.17;;;5.20;;
11054;SDS011;5580;50.106;8.702;2024-03-17T12:44:59;7.70;;;5.20;;
11054;SDS011;5580;50.106;8.702;2024-03-17T12:47:31;8.47;;;5.60;;
11054;SDS011;5580;50.106;8.702;2024-03-17T12:49:58;10.60;;;5.77;;
11054;SDS011;5580;50.106;8.702;2024-03-17T12:52:25;8.27;;;5.53;;
11054;SDS011;5580;50.106;8.702;2024-03-17T13:03:29;7.50;;;5.37;;
11054;SDS011;5580;50.106;8.702;2024-03-17T13:06:02;9.53;;;5.60;;
11054;SDS011;5580;50.106;8.702;2024-03-17T13:08:32;7.57;;;5.20;;
11054;SDS011;5580;50.106;8.702;2024-03-17T13:10:59;9.67;;;5.83;;
11054;SDS011;5580;50.106;8.702;2024-03-17T13:13:24;10.30;;;5.40;;
11054;SDS011;5580;50.106;8.702;2024-03-17T13:15:51;10.80;;;5.87;;
11054;SDS011;5580;50.106;8.702;2024-03-17T13:18:17;9.20;;;5.70;;
11054;SDS011;5580;50.106;8.702;2024-03-17T13:20:47;10.13;;;5.60;;
11054;SDS011;5580;50.106;8.702;2024-03-17T13:23:18;8.97;;;5.43;;
11054;SDS011;5580;50.106;8.702;2024-03-17T13:25:46;8.17;;;5.10;;
11054;SDS011;5580;50.106;8.702;2024-03-17T13:28:13;10.13;;;5.43;;
11054;SDS011;5580;50.106;8.702;2024-03-17T13:30:40;11.80;;;5.50;;
11054;SDS011;5580;50.106;8.702;2024-03-17T13:33:07;8.67;;;5.70;;
11054;SDS011;5580;50.106;8.702;2024-03-17T13:35:36;9.60;;;6.20;;
11054;SDS011;5580;50.106;8.702;2024-03-17T13:38:04;11.90;;;5.93;;
11054;SDS011;5580;50.106;8.702;2024-03-17T13:40:32;9.77;;;5.83;;
11054;SDS011;5580;50.106;8.702;2024-03-17T13:42:58;9.93;;;5.83;;
11054;SDS011;5580;50.106;8.702;2024-03-17T13:45:25;12.27;;;6.40;;
11054;SDS011;5580;50.106;8.702;2024-03-17T13:47:59;10.47;;;5.70;;
11054;SDS011;5580;50.106;8.702;2024-03-17T13:50:26;10.00;;;6.03;;
11054;SDS011;5580;50.106;8.702;2024-03-17T13:52:52;10.60;;;5.80;;
11054;SDS011;5580;50.106;8.702;2024-03-17T13:55:19;10.40;;;5.60;;
11054;SDS011;5580;50.106;8.702;2024-03-17T13:57:46;9.67;;;5.43;;
11054;SDS011;5580;50.106;8.702;2024-03-17T14:00:14;8.77;;;5.20;;
11054;SDS011;5580;50.106;8.702;2024-03-17T14:02:47;10.27;;;5.23;;
11054;SDS011;5580;50.106;8.702;2024-03-17T14:05:15;13.37;;;5.97;;
11054;SDS011;5580;50.106;8.702;2024-03-17T14:07:42;9.67;;;5.50;;
11054;SDS011;5580;50.106;8.702;2024-03-17T14:10:08;10.00;;;5.80;;
11054;SDS011;5580;50.106;8.702;2024-03-17T14:12:35;9.77;;;5.93;;
11054;SDS011;5580;50.106;8.702;2024-03-17T14:15:02;9.47;;;5.23;;
11054;SDS011;5580;50.106;8.702;2024-03-17T14:17:32;9.23;;;5.57;;
11054;SDS011;5580;50.106;8.702;2024-03-17T14:19:58;8.63;;;5.30;;
11054;SDS011;5580;50.106;8.702;2024-03-17T14:22:24;9.20;;;5.90;;
11054;SDS011;5580;50.106;8.702;2024-03-17T14:24:50;11.37;;;5.60;;
11054;SDS011;5580;50.106;8.702;2024-03-17T14:27:15;9.13;;;5.60;;
11054;SDS011;5580;50.106;8.702;2024-03-17T14:29:42;10.47;;;6.00;;
11054;SDS011;5580;50.106;8.702;2024-03-17T14:32:08;8.90;;;5.90;;
11054;SDS011;5580;50.106;8.702;2024-03-17T14:34:34;9.37;;;5.63;;
11054;SDS011;5580;50.106;8.702;2024-03-17T14:37:03;9.07;;;5.80;;
11054;SDS011;5580;50.106;8.702;2024-03-17T14:39:29;10.47;;;6.00;;
11054;SDS011;5580;50.106;8.702;2024-03-17T14:41:58;11.57;;;6.10;;
11054;SDS011;5580;50.106;8.702;2024-03-17T14:44:23;10.10;;;6.00;;
11054;SDS011;5580;50.106;8.702;2024-03-17T14:46:49;10.97;;;6.07;;
11054;SDS011;5580;50.106;8.702;2024-03-17T14:49:20;9.73;;;6.20;;
11054;SDS011;5580;50.106;8.702;2024-03-17T14:51:46;11.10;;;5.90;;
11054;SDS011;5580;50.106;8.702;2024-03-17T14:54:12;10.97;;;6.37;;
11054;SDS011;5580;50.106;8.702;2024-03-17T14:56:38;10.10;;;5.70;;
11054;SDS011;5580;50.106;8.702;2024-03-17T14:59:05;9.10;;;5.20;;
11054;SDS011;5580;50.106;8.702;2024-03-17T15:01:31;9.43;;;5.33;;
11054;SDS011;5580;50.106;8.702;2024-03-17T15:03:56;9.37;;;5.93;;
11054;SDS011;5580;50.106;8.702;2024-03-17T15:06:22;10.57;;;6.17;;
11054;SDS011;5580;50.106;8.702;2024-03-17T15:08:49;9.87;;;5.60;;
11054;SDS011;5580;50.106;8.702;2024-03-17T15:11:15;12.67;;;6.20;;
11054;SDS011;5580;50.106;8.702;2024-03-17T15:13:43;9.93;;;6.20;;
11054;SDS011;5580;50.106;8.702;2024-03-17T15:21:32;11.10;;;6.27;;
11054;SDS011;5580;50.106;8.702;2024-03-17T15:23:58;9.47;;;6.17;;
11054;SDS011;5580;50.106;8.702;2024-03-17T15:26:24;10.07;;;5.87;;
11054;SDS011;5580;50.106;8.702;2024-03-17T15:28:49;9.53;;;5.70;;
11054;SDS011;5580;50.106;8.702;2024-03-17T15:31:15;10.10;;;6.30;;
11054;SDS011;5580;50.106;8.702;2024-03-17T15:33:42;10.53;;;6.33;;
11054;SDS011;5580;50.106;8.702;2024-03-17T15:36:08;11.43;;;6.60;;
11054;SDS011;5580;50.106;8.702;2024-03-17T15:38:34;10.93;;;6.67;;